Terminal Aerodrome Forecast
Issued by NWS Charleston, WV

Current Version | Previous Version | Graphics & Text | Print | Product List | Glossary On
Versions: 1 2 3 4 5 6 7 8 9 10 11 12 13 14 15 16 17 18 19 20 21 22 23 24 25 26 27
000
FTUS41 KRLX 312351
TAFEKN
TAF
KEKN 312351Z 0100/0124 22005KT P6SM SHRA VCTS BKN045CB
     FM010100 21004KT P6SM BKN250
     FM010600 26004KT P6SM BKN070
     FM010800 27003KT 4SM BR BKN060
     FM011200 29004KT 1SM BR SCT001 OVC007
     FM011300 30004KT 2SM BR SCT001 OVC008
     FM011400 30007KT 5SM BR OVC015
     FM011900 31006KT P6SM VCTS BKN025CB=

USA.gov is the U.S. government's official web portal to all federal, state and local government web resources and services.